sensor_id;sensor_type;location;lat;lon;timestamp;pressure;altitude;pressure_sealevel;temperature;humidity
6500;BME280;3283;52.330;9.772;2023-07-24T04:02:48;99665.06;;;18.26;100.00
6500;BME280;3283;52.330;9.772;2023-07-24T04:05:13;99661.16;;;18.31;100.00
6500;BME280;3283;52.330;9.772;2023-07-24T04:07:38;99665.38;;;18.35;100.00
6500;BME280;3283;52.330;9.772;2023-07-24T04:10:04;99658.97;;;18.38;100.00
6500;BME280;3283;52.330;9.772;2023-07-24T04:12:30;99645.50;;;18.41;100.00
6500;BME280;3283;52.330;9.772;2023-07-24T04:14:55;99634.53;;;18.46;100.00
6500;BME280;3283;52.330;9.772;2023-07-24T04:17:20;99628.19;;;18.48;100.00
6500;BME280;3283;52.330;9.772;2023-07-24T04:19:46;99632.28;;;18.54;100.00
6500;BME280;3283;52.330;9.772;2023-07-24T04:22:11;99633.69;;;18.59;100.00
6500;BME280;3283;52.330;9.772;2023-07-24T04:24:36;99635.22;;;18.63;100.00
6500;BME280;3283;52.330;9.772;2023-07-24T04:27:02;99628.00;;;18.65;100.00
6500;BME280;3283;52.330;9.772;2023-07-24T04:29:27;99627.22;;;18.63;100.00
6500;BME280;3283;52.330;9.772;2023-07-24T04:31:53;99625.69;;;18.59;100.00
6500;BME280;3283;52.330;9.772;2023-07-24T04:34:18;99628.19;;;18.62;100.00
6500;BME280;3283;52.330;9.772;2023-07-24T04:36:44;99626.47;;;18.61;100.00
6500;BME280;3283;52.330;9.772;2023-07-24T04:39:09;99623.03;;;18.59;100.00
6500;BME280;3283;52.330;9.772;2023-07-24T04:41:34;99620.31;;;18.61;100.00
6500;BME280;3283;52.330;9.772;2023-07-24T04:44:00;99625.69;;;18.59;100.00
6500;BME280;3283;52.330;9.772;2023-07-24T04:46:25;99620.56;;;18.56;100.00
6500;BME280;3283;52.330;9.772;2023-07-24T04:48:50;99622.97;;;18.61;100.00
6500;BME280;3283;52.330;9.772;2023-07-24T04:51:16;99609.72;;;18.59;100.00
6500;BME280;3283;52.330;9.772;2023-07-24T04:53:43;99619.41;;;18.60;100.00
6500;BME280;3283;52.330;9.772;2023-07-24T04:56:09;99615.91;;;18.60;100.00
6500;BME280;3283;52.330;9.772;2023-07-24T04:58:34;99599.25;;;18.56;100.00
6500;BME280;3283;52.330;9.772;2023-07-24T05:01:02;99599.84;;;18.61;100.00
6500;BME280;3283;52.330;9.772;2023-07-24T05:03:28;99589.75;;;18.66;100.00
6500;BME280;3283;52.330;9.772;2023-07-24T05:05:54;99583.06;;;18.74;100.00
6500;BME280;3283;52.330;9.772;2023-07-24T05:08:21;99573.66;;;18.82;100.00
6500;BME280;3283;52.330;9.772;2023-07-24T05:10:46;99575.53;;;18.94;100.00
6500;BME280;3283;52.330;9.772;2023-07-24T05:13:12;99570.84;;;19.12;100.00
6500;BME280;3283;52.330;9.772;2023-07-24T05:15:37;99572.59;;;19.26;100.00
6500;BME280;3283;52.330;9.772;2023-07-24T05:18:02;99570.19;;;19.36;100.00
6500;BME280;3283;52.330;9.772;2023-07-24T05:20:28;99565.72;;;19.63;100.00
6500;BME280;3283;52.330;9.772;2023-07-24T05:22:53;99568.97;;;19.94;100.00
6500;BME280;3283;52.330;9.772;2023-07-24T05:25:18;99563.53;;;20.08;100.00
6500;BME280;3283;52.330;9.772;2023-07-24T05:27:44;99568.78;;;20.35;100.00
6500;BME280;3283;52.330;9.772;2023-07-24T05:30:09;99563.16;;;20.52;100.00
6500;BME280;3283;52.330;9.772;2023-07-24T05:32:34;99575.22;;;20.45;100.00
6500;BME280;3283;52.330;9.772;2023-07-24T05:35:00;99575.75;;;20.38;100.00
6500;BME280;3283;52.330;9.772;2023-07-24T05:37:25;99579.03;;;20.28;100.00
6500;BME280;3283;52.330;9.772;2023-07-24T05:39:50;99590.38;;;20.19;100.00
6500;BME280;3283;52.330;9.772;2023-07-24T05:42:16;99585.34;;;20.02;100.00
6500;BME280;3283;52.330;9.772;2023-07-24T05:44:42;99580.50;;;19.94;100.00
6500;BME280;3283;52.330;9.772;2023-07-24T05:47:07;99570.47;;;19.98;100.00
6500;BME280;3283;52.330;9.772;2023-07-24T05:49:32;99555.69;;;19.80;100.00
6500;BME280;3283;52.330;9.772;2023-07-24T05:51:58;99541.56;;;19.65;100.00
6500;BME280;3283;52.330;9.772;2023-07-24T05:54:23;99548.63;;;19.66;100.00
6500;BME280;3283;52.330;9.772;2023-07-24T05:56:48;99565.00;;;19.74;100.00
6500;BME280;3283;52.330;9.772;2023-07-24T05:59:14;99574.69;;;19.62;100.00
6500;BME280;3283;52.330;9.772;2023-07-24T06:01:39;99570.19;;;19.63;100.00
6500;BME280;3283;52.330;9.772;2023-07-24T06:04:04;99567.22;;;19.67;100.00
6500;BME280;3283;52.330;9.772;2023-07-24T06:06:32;99566.38;;;19.67;100.00
6500;BME280;3283;52.330;9.772;2023-07-24T06:08:57;99561.25;;;19.77;100.00
6500;BME280;3283;52.330;9.772;2023-07-24T06:11:23;99553.78;;;19.94;100.00
6500;BME280;3283;52.330;9.772;2023-07-24T06:13:48;99547.94;;;20.02;100.00
6500;BME280;3283;52.330;9.772;2023-07-24T06:16:13;99550.16;;;20.08;100.00
6500;BME280;3283;52.330;9.772;2023-07-24T06:18:39;99548.91;;;20.26;100.00
6500;BME280;3283;52.330;9.772;2023-07-24T06:21:04;99545.84;;;20.45;100.00
6500;BME280;3283;52.330;9.772;2023-07-24T06:23:29;99533.94;;;20.62;100.00
6500;BME280;3283;52.330;9.772;2023-07-24T06:25:55;99517.81;;;20.88;100.00
6500;BME280;3283;52.330;9.772;2023-07-24T06:28:21;99510.13;;;20.83;100.00
6500;BME280;3283;52.330;9.772;2023-07-24T06:30:46;99506.88;;;20.91;100.00
6500;BME280;3283;52.330;9.772;2023-07-24T06:33:11;99498.69;;;21.05;100.00
6500;BME280;3283;52.330;9.772;2023-07-24T06:35:37;99504.84;;;21.18;100.00
6500;BME280;3283;52.330;9.772;2023-07-24T06:38:02;99502.28;;;21.29;100.00
6500;BME280;3283;52.330;9.772;2023-07-24T06:40:27;99497.56;;;21.20;100.00
6500;BME280;3283;52.330;9.772;2023-07-24T06:42:53;99491.94;;;21.12;100.00
6500;BME280;3283;52.330;9.772;2023-07-24T06:45:18;99495.28;;;21.03;100.00
6500;BME280;3283;52.330;9.772;2023-07-24T06:47:44;99502.38;;;20.91;100.00
6500;BME280;3283;52.330;9.772;2023-07-24T06:50:09;99503.28;;;20.79;100.00
6500;BME280;3283;52.330;9.772;2023-07-24T06:52:34;99500.75;;;20.65;100.00
6500;BME280;3283;52.330;9.772;2023-07-24T06:55:00;99506.31;;;20.74;100.00
6500;BME280;3283;52.330;9.772;2023-07-24T06:57:25;99507.47;;;20.83;100.00
6500;BME280;3283;52.330;9.772;2023-07-24T06:59:51;99506.72;;;20.81;100.00
6500;BME280;3283;52.330;9.772;2023-07-24T07:02:16;99513.59;;;20.72;100.00
6500;BME280;3283;52.330;9.772;2023-07-24T07:04:41;99507.19;;;20.62;100.00
6500;BME280;3283;52.330;9.772;2023-07-24T07:07:07;99507.13;;;20.51;100.00
6500;BME280;3283;52.330;9.772;2023-07-24T07:09:32;99492.47;;;20.44;100.00
6500;BME280;3283;52.330;9.772;2023-07-24T07:11:57;99498.75;;;20.43;100.00
6500;BME280;3283;52.330;9.772;2023-07-24T07:14:23;99501.84;;;20.37;100.00
6500;BME280;3283;52.330;9.772;2023-07-24T07:16:49;99506.34;;;20.36;100.00
6500;BME280;3283;52.330;9.772;2023-07-24T07:19:14;99509.25;;;20.46;100.00
6500;BME280;3283;52.330;9.772;2023-07-24T07:21:39;99506.78;;;20.55;100.00
6500;BME280;3283;52.330;9.772;2023-07-24T07:24:05;99510.31;;;20.56;100.00
6500;BME280;3283;52.330;9.772;2023-07-24T07:26:30;99501.84;;;20.62;100.00
6500;BME280;3283;52.330;9.772;2023-07-24T07:28:56;99505.50;;;20.48;100.00
6500;BME280;3283;52.330;9.772;2023-07-24T07:31:21;99509.38;;;20.44;100.00
6500;BME280;3283;52.330;9.772;2023-07-24T07:33:47;99511.25;;;20.29;100.00
6500;BME280;3283;52.330;9.772;2023-07-24T07:36:13;99519.19;;;20.18;100.00
6500;BME280;3283;52.330;9.772;2023-07-24T07:38:38;99521.00;;;20.05;100.00
6500;BME280;3283;52.330;9.772;2023-07-24T07:41:05;99518.03;;;19.97;100.00
6500;BME280;3283;52.330;9.772;2023-07-24T07:43:31;99513.09;;;19.91;100.00
6500;BME280;3283;52.330;9.772;2023-07-24T07:45:56;99520.47;;;20.00;100.00
6500;BME280;3283;52.330;9.772;2023-07-24T07:48:22;99519.97;;;19.95;100.00
6500;BME280;3283;52.330;9.772;2023-07-24T07:50:54;99523.66;;;19.80;100.00
6500;BME280;3283;52.330;9.772;2023-07-24T07:53:22;99527.09;;;19.82;100.00
6500;BME280;3283;52.330;9.772;2023-07-24T07:55:55;99546.31;;;19.20;100.00
6500;BME280;3283;52.330;9.772;2023-07-24T07:58:20;99559.38;;;18.41;100.00
6500;BME280;3283;52.330;9.772;2023-07-24T08:00:45;99571.72;;;17.99;100.00
6500;BME280;3283;52.330;9.772;2023-07-24T08:03:11;99577.69;;;18.02;100.00
6500;BME280;3283;52.330;9.772;2023-07-24T14:25:25;99482.34;;;17.05;100.00
6500;BME280;3283;52.330;9.772;2023-07-24T14:27:50;99480.84;;;17.30;100.00
6500;BME280;3283;52.330;9.772;2023-07-24T14:30:16;99473.22;;;17.24;100.00
6500;BME280;3283;52.330;9.772;2023-07-24T14:32:41;99484.81;;;16.78;100.00
6500;BME280;3283;52.330;9.772;2023-07-24T14:35:07;99487.59;;;16.90;100.00
6500;BME280;3283;52.330;9.772;2023-07-24T14:37:32;99493.94;;;16.56;100.00
6500;BME280;3283;52.330;9.772;2023-07-24T14:39:57;99497.47;;;16.57;100.00
6500;BME280;3283;52.330;9.772;2023-07-24T14:42:23;99495.00;;;16.85;100.00
6500;BME280;3283;52.330;9.772;2023-07-24T14:44:48;99490.53;;;16.86;100.00
6500;BME280;3283;52.330;9.772;2023-07-24T14:47:13;99487.16;;;17.14;100.00
6500;BME280;3283;52.330;9.772;2023-07-24T14:49:40;99488.47;;;17.37;100.00
6500;BME280;3283;52.330;9.772;2023-07-24T14:52:05;99490.75;;;17.43;100.00
6500;BME280;3283;52.330;9.772;2023-07-24T14:54:31;99492.22;;;17.48;100.00
6500;BME280;3283;52.330;9.772;2023-07-24T14:56:57;99474.53;;;17.62;100.00
6500;BME280;3283;52.330;9.772;2023-07-24T14:59:23;99468.28;;;17.63;100.00
6500;BME280;3283;52.330;9.772;2023-07-24T15:01:48;99443.19;;;17.67;100.00
6500;BME280;3283;52.330;9.772;2023-07-24T15:04:13;99419.06;;;17.70;100.00
6500;BME280;3283;52.330;9.772;2023-07-24T15:06:39;99406.34;;;17.89;100.00
6500;BME280;3283;52.330;9.772;2023-07-24T15:09:04;99380.91;;;17.85;100.00
6500;BME280;3283;52.330;9.772;2023-07-24T15:11:29;99386.22;;;17.99;100.00
6500;BME280;3283;52.330;9.772;2023-07-24T15:13:55;99373.03;;;17.83;100.00
6500;BME280;3283;52.330;9.772;2023-07-24T15:16:20;99365.38;;;18.06;100.00
6500;BME280;3283;52.330;9.772;2023-07-24T15:18:46;99374.97;;;18.08;100.00
6500;BME280;3283;52.330;9.772;2023-07-24T15:21:11;99375.94;;;18.07;100.00
6500;BME280;3283;52.330;9.772;2023-07-24T15:23:37;99369.63;;;18.23;100.00
6500;BME280;3283;52.330;9.772;2023-07-24T15:26:02;99389.88;;;18.25;100.00
6500;BME280;3283;52.330;9.772;2023-07-24T15:28:27;99395.88;;;18.15;100.00
6500;BME280;3283;52.330;9.772;2023-07-24T15:30:53;99391.66;;;18.25;100.00
6500;BME280;3283;52.330;9.772;2023-07-24T15:33:19;99394.69;;;17.92;100.00
6500;BME280;3283;52.330;9.772;2023-07-24T15:35:44;99399.75;;;18.64;100.00
6500;BME280;3283;52.330;9.772;2023-07-24T15:38:10;99418.78;;;19.78;100.00
6500;BME280;3283;52.330;9.772;2023-07-24T15:40:37;99413.03;;;19.71;100.00
6500;BME280;3283;52.330;9.772;2023-07-24T15:43:04;99411.13;;;19.60;100.00
6500;BME280;3283;52.330;9.772;2023-07-24T15:45:30;99420.88;;;20.23;100.00
6500;BME280;3283;52.330;9.772;2023-07-24T15:47:55;99422.63;;;21.55;100.00
6500;BME280;3283;52.330;9.772;2023-07-24T15:50:20;99417.81;;;23.46;100.00
6500;BME280;3283;52.330;9.772;2023-07-24T15:52:46;99424.78;;;24.61;100.00
6500;BME280;3283;52.330;9.772;2023-07-24T15:55:11;99426.63;;;23.69;100.00
6500;BME280;3283;52.330;9.772;2023-07-24T15:57:36;99418.28;;;23.72;100.00
6500;BME280;3283;52.330;9.772;2023-07-24T16:00:02;99418.59;;;23.58;100.00
6500;BME280;3283;52.330;9.772;2023-07-24T16:02:30;99407.50;;;22.78;100.00
6500;BME280;3283;52.330;9.772;2023-07-24T16:04:55;99406.38;;;22.26;100.00
6500;BME280;3283;52.330;9.772;2023-07-24T16:07:21;99390.66;;;23.19;100.00
6500;BME280;3283;52.330;9.772;2023-07-24T16:09:46;99384.72;;;24.28;100.00
